Aviation Digital Data Service (ADDS)

Output produced by TAFs form (1928 UTC 22 December 2014)
found at http://aviationweather.gov/adds/tafs/
 
KVEL 221745Z 2218/2318 02004KT P6SM SCT023 OVC080 WS020/32035KT 
     TEMPO 2218/2220 -RA SCT020 BKN030 
     FM222000 32010G20KT P6SM SCT030 OVC050 WS020/32035KT 
     FM230300 32010G18KT P6SM SCT030 BKN060 
     FM230600 36009KT P6SM SCT060